createdAt,value
2019-04-25T00:04:31.685Z,14.81
2019-04-25T00:09:37.522Z,14.32
2019-04-25T00:14:42.482Z,13.82
2019-04-25T00:19:48.510Z,13.59
2019-04-25T00:24:53.021Z,13.50
2019-04-25T00:29:57.414Z,13.42
2019-04-25T00:35:02.036Z,13.30
2019-04-25T00:40:06.825Z,13.15
2019-04-25T00:45:11.869Z,13.08
2019-04-25T00:50:17.023Z,12.97
2019-04-25T00:55:28.642Z,12.87
2019-04-25T01:00:28.363Z,12.82
2019-04-25T01:05:33.530Z,12.95
2019-04-25T01:10:37.535Z,12.95
2019-04-25T01:15:42.525Z,12.98
2019-04-25T01:20:46.997Z,13.08
2019-04-25T01:25:51.586Z,13.14
2019-04-25T01:30:56.280Z,13.18
2019-04-25T01:36:00.687Z,13.20
2019-04-25T01:41:09.922Z,13.14
2019-04-25T01:46:14.881Z,13.13
2019-04-25T01:51:25.760Z,13.19
2019-04-25T01:56:29.871Z,13.23
2019-04-25T02:01:34.144Z,13.25
2019-04-25T02:06:38.205Z,13.29
2019-04-25T02:11:43.845Z,13.34
2019-04-25T02:16:57.571Z,13.44
2019-04-25T02:22:27.690Z,13.52
2019-04-25T02:27:31.836Z,13.58
2019-04-25T02:32:37.094Z,13.56
2019-04-25T02:37:47.298Z,13.46
2019-04-25T02:42:51.360Z,13.51
2019-04-25T02:47:56.642Z,13.52
2019-04-25T02:53:07.481Z,13.59
2019-04-25T02:58:18.310Z,13.65
2019-04-25T03:03:24.454Z,13.60
2019-04-25T03:08:35.489Z,13.56
2019-04-25T03:13:45.169Z,13.62
2019-04-25T03:18:51.015Z,13.61
2019-04-25T03:23:55.377Z,13.68
2019-04-25T03:28:59.827Z,13.53
2019-04-25T03:34:14.053Z,13.27
2019-04-25T03:39:26.870Z,13.13
2019-04-25T03:44:39.326Z,12.96
2019-04-25T03:54:58.588Z,12.59
2019-04-25T04:05:18.147Z,12.06
2019-04-25T04:10:23.292Z,11.79
2019-04-25T04:15:33.574Z,11.73
2019-04-25T04:20:44.670Z,11.68
2019-04-25T04:25:48.757Z,11.76
2019-04-25T04:30:54.072Z,11.85
2019-04-25T04:36:08.795Z,11.91
2019-04-25T04:41:20.077Z,11.83
2019-04-25T04:46:24.526Z,12.04
2019-04-25T04:51:28.578Z,12.18
2019-04-25T04:56:34.217Z,12.33
2019-04-25T05:01:47.642Z,12.58
2019-04-25T05:06:51.833Z,15.11
2019-04-25T05:11:55.883Z,21.48
2019-04-25T05:17:00.496Z,23.74
2019-04-25T05:22:10.273Z,23.75
2019-04-25T05:27:33.714Z,23.70
2019-04-25T05:32:30.733Z,18.88
2019-04-25T05:37:34.856Z,17.31
2019-04-25T05:42:39.005Z,17.92
2019-04-25T05:47:44.286Z,19.45
2019-04-25T05:52:54.240Z,17.57
2019-04-25T05:57:58.288Z,16.16
2019-04-25T06:03:03.624Z,16.41
2019-04-25T06:08:17.854Z,15.87
2019-04-25T06:13:24.979Z,15.48
2019-04-25T06:18:33.864Z,15.14
2019-04-25T06:23:48.710Z,15.31
2019-04-25T06:28:58.970Z,16.02
2019-04-25T06:34:04.553Z,16.39
2019-04-25T06:39:15.340Z,16.32
2019-04-25T06:44:20.647Z,16.75
2019-04-25T06:49:31.404Z,17.07
2019-04-25T06:54:43.617Z,17.13
2019-04-25T06:59:56.871Z,16.86
2019-04-25T07:05:00.965Z,16.87
2019-04-25T07:10:05.358Z,16.85
2019-04-25T07:20:45.936Z,16.83
2019-04-25T07:25:49.995Z,16.95
2019-04-25T07:30:54.688Z,16.83
2019-04-25T07:36:09.141Z,17.00
2019-04-25T07:41:16.348Z,16.98
2019-04-25T07:46:26.374Z,17.10
2019-04-25T07:51:36.850Z,17.20
2019-04-25T07:56:40.956Z,17.33
2019-04-25T08:01:45.004Z,17.47
2019-04-25T08:06:49.075Z,17.46
2019-04-25T08:11:54.896Z,17.61
2019-04-25T08:28:17.753Z,17.94
2019-04-25T08:33:23.794Z,18.20
2019-04-25T08:38:35.218Z,18.63
2019-04-25T08:43:46.007Z,18.75
2019-04-25T08:48:50.107Z,19.02
2019-04-25T08:53:54.252Z,19.57
2019-04-25T08:59:05.639Z,19.68
2019-04-25T09:04:09.645Z,20.24
2019-04-25T09:14:29.854Z,28.08
2019-04-25T09:19:38.387Z,28.70
2019-04-25T09:24:44.122Z,28.55
2019-04-25T09:29:54.259Z,27.83
2019-04-25T09:40:45.701Z,28.93
2019-04-25T09:45:56.044Z,30.22
2019-04-25T09:51:00.073Z,30.57
2019-04-25T09:56:04.242Z,30.39
2019-04-25T10:01:10.660Z,27.78
2019-04-25T10:06:33.326Z,26.75
2019-04-25T10:11:38.360Z,27.34
2019-04-25T10:16:44.364Z,28.42
2019-04-25T10:21:49.658Z,29.21
2019-04-25T10:26:54.768Z,29.81
2019-04-25T10:31:59.025Z,29.34
2019-04-25T10:37:03.461Z,28.81
2019-04-25T10:42:07.554Z,28.45
2019-04-25T10:47:11.574Z,28.54
2019-04-25T10:52:15.749Z,28.79
2019-04-25T10:57:19.986Z,28.44
2019-04-25T11:02:24.642Z,28.74
2019-04-25T11:07:28.706Z,27.80
2019-04-25T11:12:33.825Z,27.69
2019-04-25T11:17:38.254Z,27.96
2019-04-25T11:22:44.624Z,28.23
2019-04-25T11:27:49.683Z,27.52
2019-04-25T11:32:54.714Z,27.72
2019-04-25T11:37:58.722Z,27.41
2019-04-25T11:43:05.975Z,27.61
2019-04-25T11:48:09.974Z,26.89
2019-04-25T11:53:13.968Z,27.15
2019-04-25T11:58:17.950Z,27.04
2019-04-25T12:03:23.213Z,27.53
2019-04-25T12:08:27.696Z,27.41
2019-04-25T12:13:31.691Z,27.05
2019-04-25T12:18:35.701Z,27.44
2019-04-25T12:23:39.781Z,27.77
2019-04-25T12:28:43.811Z,27.36
2019-04-25T12:33:49.070Z,27.17
2019-04-25T12:38:54.533Z,27.47
2019-04-25T12:43:59.525Z,27.74
2019-04-25T12:49:03.566Z,27.82
2019-04-25T12:54:07.854Z,27.89
2019-04-25T12:59:11.896Z,27.61
2019-04-25T13:04:15.849Z,27.44
2019-04-25T13:09:19.859Z,27.51
2019-04-25T13:14:23.885Z,27.67
2019-04-25T13:19:27.831Z,27.73
2019-04-25T13:24:31.856Z,27.83
2019-04-25T13:29:35.844Z,28.25
2019-04-25T13:34:39.839Z,27.95
2019-04-25T13:39:44.232Z,28.19
2019-04-25T13:44:48.240Z,28.57
2019-04-25T13:49:52.236Z,27.88
2019-04-25T13:54:56.245Z,27.66
2019-04-25T14:00:00.232Z,28.14
2019-04-25T14:05:05.697Z,28.08
2019-04-25T14:10:09.740Z,28.60
2019-04-25T14:15:15.094Z,28.41
2019-04-25T14:20:20.844Z,28.57
2019-04-25T14:25:27.197Z,28.81
2019-04-25T14:30:32.602Z,29.06
2019-04-25T14:35:37.093Z,28.95
2019-04-25T14:40:42.330Z,28.94
2019-04-25T14:45:46.375Z,28.87
2019-04-25T14:50:50.370Z,28.51
2019-04-25T14:55:54.706Z,28.84
2019-04-25T15:00:58.721Z,28.96
2019-04-25T15:06:02.690Z,29.03
2019-04-25T15:11:06.672Z,28.93
2019-04-25T15:16:11.042Z,29.16
2019-04-25T15:21:15.029Z,28.85
2019-04-25T15:26:19.396Z,29.20
2019-04-25T15:31:23.475Z,29.32
2019-04-25T15:41:42.923Z,28.72
2019-04-25T15:52:02.358Z,28.72
2019-04-25T15:57:06.771Z,28.83
2019-04-25T16:02:10.916Z,28.93
2019-04-25T16:07:14.904Z,28.25
2019-04-25T16:12:19.594Z,28.23
2019-04-25T16:17:23.693Z,27.73
2019-04-25T16:22:29.042Z,27.45
2019-04-25T16:27:39.650Z,26.56
2019-04-25T16:32:43.885Z,26.86
2019-04-25T16:37:47.917Z,27.67
2019-04-25T16:42:51.947Z,27.26
2019-04-25T16:47:57.743Z,27.31
2019-04-25T16:53:01.834Z,27.08
2019-04-25T16:58:05.863Z,26.49
2019-04-25T17:08:26.922Z,26.38
2019-04-25T17:13:32.137Z,26.50
2019-04-25T17:18:36.274Z,26.25
2019-04-25T17:23:40.433Z,25.78
2019-04-25T17:28:44.896Z,25.14
2019-04-25T17:33:49.041Z,24.57
2019-04-25T17:38:53.125Z,24.29
2019-04-25T17:43:57.269Z,24.10
2019-04-25T17:49:01.623Z,23.75
2019-04-25T17:54:05.810Z,23.25
2019-04-25T17:59:09.977Z,22.76
2019-04-25T18:04:14.463Z,22.39
2019-04-25T18:09:18.942Z,21.99
2019-04-25T18:14:23.160Z,21.56
2019-04-25T18:19:27.398Z,21.22
2019-04-25T18:24:31.706Z,20.82
2019-04-25T18:29:36.074Z,20.37
2019-04-25T18:34:40.466Z,20.14
2019-04-25T18:39:46.276Z,19.74
2019-04-25T18:44:50.634Z,19.36
2019-04-25T18:49:54.996Z,19.16
2019-04-25T18:54:59.325Z,19.08
2019-04-25T19:00:04.232Z,18.68
2019-04-25T19:05:09.277Z,18.35
2019-04-25T19:10:15.087Z,18.06
2019-04-25T19:15:19.491Z,17.98
2019-04-25T19:20:23.879Z,18.19
2019-04-25T19:25:28.601Z,18.34
2019-04-25T19:30:33.145Z,17.97
2019-04-25T19:35:37.408Z,18.03
2019-04-25T19:40:42.689Z,17.85
2019-04-25T19:45:47.488Z,18.08
2019-04-25T19:50:54.889Z,18.28
2019-04-25T19:56:00.366Z,18.35
2019-04-25T20:01:04.903Z,18.52
2019-04-25T20:06:09.260Z,18.35
2019-04-25T20:11:13.650Z,18.30
2019-04-25T20:16:18.056Z,18.09
2019-04-25T20:21:22.312Z,18.11
2019-04-25T20:26:26.603Z,17.98
2019-04-25T20:31:30.818Z,18.03
2019-04-25T20:36:35.076Z,18.02
2019-04-25T20:41:39.375Z,17.79
2019-04-25T20:46:43.462Z,17.89
2019-04-25T20:51:48.466Z,18.10
2019-04-25T20:56:53.023Z,18.15
2019-04-25T21:01:57.748Z,18.11
2019-04-25T21:07:01.764Z,17.98
2019-04-25T21:12:06.507Z,17.85
2019-04-25T21:17:10.529Z,17.58
2019-04-25T21:22:15.410Z,17.51
2019-04-25T21:27:19.930Z,17.34
2019-04-25T21:32:24.518Z,17.39
2019-04-25T21:37:29.071Z,17.44
2019-04-25T21:42:34.378Z,17.21
2019-04-25T21:47:40.707Z,17.22
2019-04-25T21:52:46.055Z,17.18
2019-04-25T21:57:50.773Z,17.22
2019-04-25T22:02:56.245Z,17.21
2019-04-25T22:08:00.520Z,17.32
2019-04-25T22:13:11.954Z,17.20
2019-04-25T22:18:10.680Z,17.17
2019-04-25T22:23:27.080Z,16.92
2019-04-25T22:28:32.068Z,16.89
2019-04-25T22:33:36.351Z,17.18
2019-04-25T22:38:40.365Z,17.13
2019-04-25T22:43:44.414Z,17.06
2019-04-25T22:48:49.329Z,16.98
2019-04-25T22:53:53.672Z,16.59
2019-04-25T22:58:57.760Z,16.61
2019-04-25T23:04:01.153Z,16.81
2019-04-25T23:09:06.781Z,16.72
2019-04-25T23:14:10.980Z,16.68
2019-04-25T23:19:15.365Z,16.74
2019-04-25T23:24:19.579Z,16.59
2019-04-25T23:29:30.652Z,16.63
2019-04-25T23:34:35.026Z,16.67
2019-04-25T23:39:39.059Z,16.50
2019-04-25T23:44:43.135Z,16.30
2019-04-25T23:49:47.146Z,16.27
2019-04-25T23:55:02.060Z,16.15
